Aérodrome :
LOGIN :

S'inscrire | Disclaimer

   EN    FR    IT 

 










Légende :    VFR   VFR Marginal   IFR   IFR Intensif   IFR Très Intensif
Visi : 
Plafond : 
>= 8 km
>= 3000ft
5 à 8 km
1000 à 3000 ft
1500m à 5 km
500 à 1000 ft
800 à 1500m
200 à 500 ft
< 800m
< 200 ft
Symboles :   Orages  Brouillard  Fortes neiges  Fortes précipitations  Vent > 20 kt
SIGMETs :   Divers  Orages  Givrage  Turbulence  Onde Orograph.  Cendres Volcan.







- Altitude de l'aérodrome : 124 ft
- Code IATA : RNS
- Voir les cartes d'approche


LFRN - Rennes

DERNIER METAR :
  • 130400Z AUTO 18005KT CAVOK 07/07 Q1022 TEMPO 3000 BR BKN003

METARs EXPIRÉS :
  • 130330Z AUTO 19005KT 6000 1100 R28L/P2000 R10R/1000U NSC 08/08 Q1021 TEMPO 3000 BR BKN003
  • 130300Z AUTO 18006KT 5000 BR NSC 07/07 Q1021 TEMPO BKN003
  • 130230Z AUTO 19005KT 7000 NSC 08/07 Q1021 TEMPO 3000 BR BKN003
  • 130200Z AUTO 18005KT CAVOK 08/07 Q1021 TEMPO 3000 BR BKN003
  • 130130Z AUTO 18005KT CAVOK 08/08 Q1020 TEMPO 3000 BR BKN003

TAF TAF LFRN
Valide du 13 à 00h jusqu'au 14 à 00h UTC


122300Z 1300/1324 19008KT 9999 SCT030
PROB30
TEMPO 1300/1308 3000 BR BKN003
BECMG 1320/1322 3000 BR BKN003
PROB30
TEMPO 1322/1324 0500 FG VV///
ATIS : +33 2 99 67 72 50
Pas de NOTAMs connus pour ce terrain.



MET'MAP, la Météo Aéronautique d'un coup d'oeil ! - Copyright ORBIFLY Décembre 2007 - Disclaimer

ORBIFLY MET'MAP TEAM :

Programmation & Développement : Alexandra Zaïnal
Conception & Développement : Baudouin d'Aumeries
Co-Programmation & Développement : Marc-Olivier Méhu
Soutien technique & logistique : Manuel Goepfert

Contact : metmap@orbifly.com




SOURCES & CREDITS :

   NOAA